createdAt,value
2019-04-27T00:02:43.706Z,14.60
2019-04-27T00:05:40.061Z,14.50
2019-04-27T00:08:21.320Z,14.60
2019-04-27T00:11:08.846Z,14.60
2019-04-27T00:13:42.201Z,14.60
2019-04-27T00:16:33.743Z,14.40
2019-04-27T00:19:43.860Z,14.40
2019-04-27T00:22:36.176Z,14.40
2019-04-27T00:25:07.681Z,14.20
2019-04-27T00:27:38.848Z,14.20
2019-04-27T00:30:10.239Z,14.20
2019-04-27T00:32:43.058Z,14.30
2019-04-27T00:35:17.886Z,14.40
2019-04-27T00:37:59.821Z,14.30
2019-04-27T00:40:34.834Z,14.30
2019-04-27T00:43:06.114Z,14.20
2019-04-27T00:45:38.463Z,14.10
2019-04-27T00:48:10.909Z,14.20
2019-04-27T00:50:43.764Z,14.10
2019-04-27T00:53:15.283Z,14.10
2019-04-27T00:56:17.885Z,14.20
2019-04-27T00:59:11.396Z,14.10
2019-04-27T01:02:04.339Z,14.00
2019-04-27T01:04:35.773Z,13.90
2019-04-27T01:07:06.830Z,13.90
2019-04-27T01:09:38.423Z,13.80
2019-04-27T01:12:10.521Z,13.80
2019-04-27T01:14:42.800Z,13.80
2019-04-27T01:17:14.635Z,13.80
2019-04-27T01:19:45.526Z,13.80
2019-04-27T01:22:16.824Z,13.90
2019-04-27T01:24:49.220Z,13.90
2019-04-27T01:27:26.595Z,13.80
2019-04-27T01:29:58.805Z,13.80
2019-04-27T01:32:30.360Z,13.80
2019-04-27T01:35:01.442Z,13.70
2019-04-27T01:37:34.291Z,13.80
2019-04-27T01:40:06.615Z,13.80
2019-04-27T01:42:39.380Z,13.80
2019-04-27T01:45:10.816Z,13.80
2019-04-27T01:47:42.518Z,13.90
2019-04-27T01:50:13.981Z,13.90
2019-04-27T01:52:44.736Z,13.90
2019-04-27T01:55:16.079Z,13.90
2019-04-27T01:57:48.726Z,13.90
2019-04-27T02:00:59.494Z,13.90
2019-04-27T02:03:42.417Z,13.80
2019-04-27T02:06:14.743Z,13.80
2019-04-27T02:08:45.977Z,13.80
2019-04-27T02:11:18.603Z,13.80
2019-04-27T02:13:50.957Z,13.70
2019-04-27T02:16:23.265Z,13.80
2019-04-27T02:18:58.605Z,13.80
2019-04-27T02:21:30.193Z,13.80
2019-04-27T02:24:01.005Z,13.70
2019-04-27T02:26:32.229Z,13.70
2019-04-27T02:29:21.902Z,13.70
2019-04-27T02:32:15.947Z,13.70
2019-04-27T02:34:51.892Z,13.70
2019-04-27T02:37:23.353Z,13.70
2019-04-27T02:39:59.811Z,13.60
2019-04-27T02:42:39.299Z,13.50
2019-04-27T02:45:15.161Z,13.60
2019-04-27T02:47:49.018Z,13.70
2019-04-27T02:50:23.763Z,13.60
2019-04-27T02:52:55.180Z,13.60
2019-04-27T02:55:29.258Z,13.50
2019-04-27T02:58:00.044Z,13.50
2019-04-27T03:00:34.360Z,13.50
2019-04-27T03:03:09.986Z,13.40
2019-04-27T03:05:41.373Z,13.50
2019-04-27T03:08:12.639Z,13.50
2019-04-27T03:10:43.836Z,13.40
2019-04-27T03:13:25.575Z,13.40
2019-04-27T03:16:15.483Z,13.30
2019-04-27T03:19:18.081Z,13.40
2019-04-27T03:22:12.923Z,13.50
2019-04-27T03:25:16.378Z,13.40
2019-04-27T03:27:50.347Z,13.30
2019-04-27T03:30:23.486Z,13.20
2019-04-27T03:32:56.697Z,13.10
2019-04-27T03:35:35.320Z,13.00
2019-04-27T03:38:00.780Z,13.10
2019-04-27T03:40:40.325Z,13.10
2019-04-27T03:43:19.774Z,13.20
2019-04-27T03:45:52.335Z,13.20
2019-04-27T03:48:24.208Z,13.10
2019-04-27T03:51:20.380Z,13.10
2019-04-27T03:54:02.404Z,13.00
2019-04-27T03:56:45.346Z,13.00
2019-04-27T03:59:21.978Z,13.00
2019-04-27T04:01:53.359Z,12.90
2019-04-27T04:04:24.462Z,12.80
2019-04-27T04:06:59.606Z,12.80
2019-04-27T04:09:40.466Z,12.80
2019-04-27T04:12:19.815Z,12.80
2019-04-27T04:14:50.940Z,12.70
2019-04-27T04:17:23.214Z,12.70
2019-04-27T04:20:00.350Z,12.70
2019-04-27T04:22:30.017Z,12.70
2019-04-27T04:25:00.576Z,12.70
2019-04-27T04:27:31.938Z,12.70
2019-04-27T04:30:03.191Z,12.80
2019-04-27T04:32:34.439Z,12.70
2019-04-27T04:35:21.186Z,12.70
2019-04-27T04:37:53.414Z,12.80
2019-04-27T04:40:31.753Z,12.80
2019-04-27T04:43:10.777Z,12.70
2019-04-27T04:46:19.618Z,12.70
2019-04-27T04:48:51.535Z,12.70
2019-04-27T04:51:22.944Z,12.70
2019-04-27T04:53:54.902Z,12.60
2019-04-27T04:56:26.081Z,12.70
2019-04-27T04:58:57.302Z,12.80
2019-04-27T05:01:29.981Z,12.80
2019-04-27T05:04:01.097Z,12.70
2019-04-27T05:06:32.422Z,12.80
2019-04-27T05:09:03.329Z,12.90
2019-04-27T05:11:35.380Z,13.00
2019-04-27T05:14:06.866Z,13.00
2019-04-27T05:16:39.062Z,13.00
2019-04-27T05:19:11.329Z,13.00
2019-04-27T05:21:42.752Z,13.10
2019-04-27T05:24:13.988Z,13.10
2019-04-27T05:26:45.280Z,13.20
2019-04-27T05:29:16.549Z,13.20
2019-04-27T05:31:49.021Z,13.20
2019-04-27T05:34:20.865Z,13.20
2019-04-27T05:37:02.971Z,13.20
2019-04-27T05:39:34.389Z,13.20
2019-04-27T05:42:05.912Z,13.20
2019-04-27T05:45:34.330Z,13.20
2019-04-27T05:48:10.220Z,13.20
2019-04-27T05:50:45.683Z,13.20
2019-04-27T05:53:18.939Z,13.40
2019-04-27T05:55:50.372Z,13.40
2019-04-27T05:58:21.626Z,13.50
2019-04-27T06:00:53.058Z,13.50
2019-04-27T06:03:25.185Z,13.60
2019-04-27T06:05:56.871Z,13.60
2019-04-27T06:08:29.475Z,13.60
2019-04-27T06:11:03.052Z,13.60
2019-04-27T06:13:34.276Z,13.70
2019-04-27T06:16:05.455Z,13.80
2019-04-27T06:18:36.706Z,13.90
2019-04-27T06:21:09.607Z,14.00
2019-04-27T06:23:41.948Z,14.10
2019-04-27T06:26:13.184Z,14.20
2019-04-27T06:28:44.375Z,14.20
2019-04-27T06:31:15.748Z,14.20
2019-04-27T06:33:47.332Z,14.40
2019-04-27T06:36:19.912Z,14.50
2019-04-27T06:38:51.544Z,14.70
2019-04-27T06:41:22.747Z,14.80
2019-04-27T06:43:53.651Z,14.90
2019-04-27T06:46:24.986Z,14.90
2019-04-27T06:48:56.178Z,15.00
2019-04-27T06:51:28.685Z,15.00
2019-04-27T06:53:59.927Z,15.00
2019-04-27T06:56:31.341Z,15.00
2019-04-27T06:59:02.577Z,15.10
2019-04-27T07:01:33.897Z,15.20
2019-04-27T07:04:05.488Z,15.20
2019-04-27T07:06:36.949Z,15.30
2019-04-27T07:09:09.890Z,15.30
2019-04-27T07:11:42.900Z,15.30
2019-04-27T07:14:14.184Z,15.40
2019-04-27T07:16:45.404Z,15.30
2019-04-27T07:19:16.803Z,15.30
2019-04-27T07:21:49.724Z,15.20
2019-04-27T07:24:21.436Z,15.30
2019-04-27T07:26:52.654Z,15.50
2019-04-27T07:29:23.947Z,15.50
2019-04-27T07:31:55.651Z,15.50
2019-04-27T07:34:28.638Z,15.70
2019-04-27T07:36:59.869Z,15.80
2019-04-27T07:39:31.037Z,15.80
2019-04-27T07:42:02.400Z,15.80
2019-04-27T07:44:52.627Z,15.90
2019-04-27T07:47:29.418Z,15.90
2019-04-27T07:50:01.655Z,15.80
2019-04-27T07:52:34.454Z,15.80
2019-04-27T07:55:08.594Z,16.10
2019-04-27T07:57:40.036Z,16.30
2019-04-27T08:00:11.994Z,16.40
2019-04-27T08:02:42.963Z,16.50
2019-04-27T08:05:14.130Z,16.50
2019-04-27T08:07:45.443Z,16.50
2019-04-27T08:10:19.368Z,16.60
2019-04-27T08:12:50.974Z,16.70
2019-04-27T08:15:26.142Z,16.80
2019-04-27T08:17:59.036Z,16.90
2019-04-27T08:20:30.136Z,16.80
2019-04-27T08:23:01.432Z,17.00
2019-04-27T08:25:32.827Z,17.20
2019-04-27T08:28:10.522Z,17.40
2019-04-27T08:31:03.520Z,17.50
2019-04-27T08:33:34.857Z,17.60
2019-04-27T08:36:05.852Z,17.60
2019-04-27T08:38:38.820Z,17.90
2019-04-27T08:41:10.114Z,17.90
2019-04-27T08:43:41.460Z,17.80
2019-04-27T08:46:12.763Z,17.90
2019-04-27T08:48:43.735Z,17.90
2019-04-27T08:51:15.151Z,17.90
2019-04-27T08:53:46.513Z,17.80
2019-04-27T08:56:21.576Z,17.70
2019-04-27T08:58:52.906Z,17.90
2019-04-27T09:01:25.322Z,17.90
2019-04-27T09:03:56.868Z,18.30
2019-04-27T09:06:28.874Z,18.50
2019-04-27T09:09:09.536Z,18.20
2019-04-27T09:12:05.789Z,18.80
2019-04-27T09:14:54.151Z,18.80
2019-04-27T09:17:39.710Z,19.00
2019-04-27T09:20:18.728Z,19.20
2019-04-27T09:22:50.163Z,19.20
2019-04-27T09:25:21.889Z,19.30
2019-04-27T09:27:53.350Z,19.10
2019-04-27T09:30:24.731Z,18.60
2019-04-27T09:32:56.177Z,18.80
2019-04-27T09:35:27.533Z,19.00
2019-04-27T09:37:59.910Z,19.00
2019-04-27T09:40:31.225Z,19.20
2019-04-27T09:43:03.186Z,19.10
2019-04-27T09:45:34.596Z,19.30
2019-04-27T09:48:06.655Z,19.30
2019-04-27T09:50:38.097Z,19.50
2019-04-27T09:53:09.479Z,19.60
2019-04-27T09:55:40.926Z,19.50
2019-04-27T09:58:12.259Z,19.50
2019-04-27T10:00:43.709Z,19.50
2019-04-27T10:03:16.184Z,19.60
2019-04-27T10:05:47.533Z,19.80
2019-04-27T10:08:19.866Z,19.80
2019-04-27T10:10:51.009Z,19.90
2019-04-27T10:13:22.380Z,19.70
2019-04-27T10:15:53.640Z,19.70
2019-04-27T10:18:26.473Z,19.90
2019-04-27T10:21:01.897Z,20.00
2019-04-27T10:23:30.380Z,20.00
2019-04-27T10:26:01.655Z,19.80
2019-04-27T10:28:32.774Z,19.90
2019-04-27T10:31:04.236Z,20.10
2019-04-27T10:33:39.899Z,20.40
2019-04-27T10:36:11.445Z,20.20
2019-04-27T10:38:42.846Z,20.30
2019-04-27T10:41:15.801Z,20.20
2019-04-27T10:43:47.853Z,20.10
2019-04-27T10:46:19.322Z,20.20
2019-04-27T10:48:50.889Z,20.30
2019-04-27T10:51:22.406Z,20.30
2019-04-27T10:53:53.707Z,20.60
2019-04-27T10:56:25.494Z,21.00
2019-04-27T10:58:57.921Z,21.40
2019-04-27T11:01:29.497Z,21.60
2019-04-27T11:04:21.749Z,21.60
2019-04-27T11:06:56.477Z,20.90
2019-04-27T11:09:27.760Z,21.00
2019-04-27T11:11:59.231Z,21.10
2019-04-27T11:14:31.002Z,21.20
2019-04-27T11:17:02.069Z,20.90
2019-04-27T11:19:33.318Z,20.80
2019-04-27T11:22:07.112Z,20.70
2019-04-27T11:24:38.075Z,20.60
2019-04-27T11:27:09.679Z,20.80
2019-04-27T11:29:41.916Z,20.70
2019-04-27T11:32:13.425Z,20.80
2019-04-27T11:35:02.469Z,20.50
2019-04-27T11:37:35.630Z,20.10
2019-04-27T11:40:08.741Z,20.10
2019-04-27T11:42:40.304Z,20.10
2019-04-27T11:45:12.464Z,20.30
2019-04-27T11:47:44.090Z,20.30
2019-04-27T11:50:19.553Z,20.40
2019-04-27T11:52:51.097Z,20.50
2019-04-27T11:55:22.747Z,20.40
2019-04-27T11:57:55.872Z,19.90
2019-04-27T12:00:31.789Z,20.20
2019-04-27T12:03:03.012Z,20.30
2019-04-27T12:05:35.829Z,19.90
2019-04-27T12:08:07.254Z,20.10
2019-04-27T12:10:38.570Z,20.10
2019-04-27T12:13:10.148Z,20.00
2019-04-27T12:15:41.462Z,19.90
2019-04-27T12:18:12.857Z,19.90
2019-04-27T12:20:45.695Z,19.70
2019-04-27T12:23:17.114Z,19.70
2019-04-27T12:25:48.748Z,20.00
2019-04-27T12:28:28.772Z,20.00
2019-04-27T12:31:13.107Z,20.10
2019-04-27T12:33:46.033Z,19.80
2019-04-27T12:36:17.359Z,19.90
2019-04-27T12:38:48.629Z,19.70
2019-04-27T12:41:19.897Z,19.80
2019-04-27T12:43:51.286Z,19.70
2019-04-27T12:46:22.676Z,19.90
2019-04-27T12:48:55.353Z,19.90
2019-04-27T12:51:28.084Z,19.60
2019-04-27T12:54:23.840Z,19.90
2019-04-27T12:57:33.425Z,19.90
2019-04-27T13:00:18.540Z,19.90
2019-04-27T13:02:50.095Z,20.10
2019-04-27T13:05:21.476Z,20.30
2019-04-27T13:07:52.643Z,20.20
2019-04-27T13:10:23.831Z,20.10
2019-04-27T13:12:56.821Z,20.10
2019-04-27T13:15:28.308Z,20.20
2019-04-27T13:18:00.522Z,20.20
2019-04-27T13:20:31.998Z,20.30
2019-04-27T13:23:03.589Z,20.50
2019-04-27T13:25:38.207Z,20.50
2019-04-27T13:28:08.241Z,20.30
2019-04-27T13:30:39.894Z,20.40
2019-04-27T13:33:11.088Z,20.60
2019-04-27T13:35:42.404Z,20.60
2019-04-27T13:38:13.720Z,20.40
2019-04-27T13:40:46.757Z,20.00
2019-04-27T13:43:32.075Z,20.20
2019-04-27T13:46:23.208Z,20.20
2019-04-27T13:49:12.026Z,20.30
2019-04-27T13:52:08.389Z,20.50
2019-04-27T13:54:39.804Z,21.50
2019-04-27T13:57:12.345Z,22.00
2019-04-27T13:59:44.762Z,22.20
2019-04-27T14:02:16.246Z,22.50
2019-04-27T14:04:47.774Z,22.40
2019-04-27T14:07:19.035Z,22.60
2019-04-27T14:09:50.634Z,22.60
2019-04-27T14:12:22.501Z,23.30
2019-04-27T14:14:53.681Z,23.00
2019-04-27T14:17:45.184Z,23.30
2019-04-27T14:20:18.007Z,22.70
2019-04-27T14:22:50.079Z,22.20
2019-04-27T14:25:21.313Z,22.50
2019-04-27T14:27:52.777Z,22.70
2019-04-27T14:30:24.449Z,22.50
2019-04-27T14:32:57.953Z,22.90
2019-04-27T14:35:29.577Z,23.00
2019-04-27T14:38:02.068Z,23.00
2019-04-27T14:40:33.509Z,23.10
2019-04-27T14:43:04.751Z,22.80
2019-04-27T14:45:38.116Z,22.70
2019-04-27T14:48:09.762Z,22.70
2019-04-27T14:50:40.650Z,23.40
2019-04-27T14:53:12.013Z,22.90
2019-04-27T14:55:43.389Z,22.60
2019-04-27T14:58:14.643Z,22.70
2019-04-27T15:00:45.947Z,23.30
2019-04-27T15:03:18.213Z,23.40
2019-04-27T15:05:53.650Z,23.00
2019-04-27T15:08:22.775Z,22.10
2019-04-27T15:10:54.275Z,21.00
2019-04-27T15:13:25.443Z,20.70
2019-04-27T15:15:56.813Z,20.60
2019-04-27T15:18:43.755Z,20.60
2019-04-27T15:21:15.270Z,20.40
2019-04-27T15:23:48.321Z,20.00
2019-04-27T15:26:22.861Z,20.10
2019-04-27T15:28:55.321Z,19.70
2019-04-27T15:31:32.855Z,19.80
2019-04-27T15:34:27.555Z,19.60
2019-04-27T15:37:23.653Z,19.60
2019-04-27T15:40:26.655Z,19.20
2019-04-27T15:43:04.033Z,19.30
2019-04-27T15:45:35.452Z,19.30
2019-04-27T15:48:06.307Z,19.40
2019-04-27T15:50:38.713Z,19.30
2019-04-27T15:53:12.587Z,19.30
2019-04-27T15:55:42.907Z,19.30
2019-04-27T15:58:20.834Z,19.30
2019-04-27T16:00:49.615Z,19.20
2019-04-27T16:03:22.786Z,19.10
2019-04-27T16:05:53.737Z,19.10
2019-04-27T16:08:25.183Z,19.00
2019-04-27T16:10:58.825Z,19.00
2019-04-27T16:13:32.967Z,19.10
2019-04-27T16:16:03.181Z,19.10
2019-04-27T16:18:34.474Z,19.20
2019-04-27T16:21:07.082Z,19.20
2019-04-27T16:23:42.818Z,19.20
2019-04-27T16:26:14.955Z,19.20
2019-04-27T16:28:49.761Z,19.00
2019-04-27T16:31:18.644Z,18.70
2019-04-27T16:33:54.052Z,18.80
2019-04-27T16:36:23.728Z,18.80
2019-04-27T16:39:08.067Z,18.80
2019-04-27T16:41:42.142Z,18.60
2019-04-27T16:44:13.362Z,18.40
2019-04-27T16:46:45.076Z,18.00
2019-04-27T16:49:16.463Z,18.30
2019-04-27T16:51:49.375Z,18.30
2019-04-27T16:54:21.353Z,18.30
2019-04-27T16:57:02.080Z,18.00
2019-04-27T16:59:43.258Z,18.10
2019-04-27T17:02:08.950Z,17.80
2019-04-27T17:04:40.366Z,18.00
2019-04-27T17:07:16.060Z,17.90
2019-04-27T17:09:49.487Z,18.00
2019-04-27T17:12:23.722Z,18.10
2019-04-27T17:15:13.669Z,18.10
2019-04-27T17:18:09.123Z,18.00
2019-04-27T17:20:40.914Z,17.80
2019-04-27T17:23:13.782Z,17.80
2019-04-27T17:25:45.721Z,17.80
2019-04-27T17:28:17.016Z,17.90
2019-04-27T17:30:48.293Z,17.80
2019-04-27T17:33:34.514Z,17.70
2019-04-27T17:36:07.914Z,17.80
2019-04-27T17:38:42.585Z,17.90
2019-04-27T17:41:12.696Z,17.80
2019-04-27T17:43:44.909Z,17.80
2019-04-27T17:46:16.078Z,17.60
2019-04-27T17:48:48.549Z,17.50
2019-04-27T17:51:19.925Z,17.40
2019-04-27T17:53:51.215Z,17.50
2019-04-27T17:56:33.329Z,17.50
2019-04-27T17:58:55.784Z,17.50
2019-04-27T18:01:30.053Z,17.60
2019-04-27T18:04:03.090Z,17.70
2019-04-27T18:06:35.157Z,17.60
2019-04-27T18:09:14.798Z,17.70
2019-04-27T18:11:50.020Z,17.80
2019-04-27T18:14:19.377Z,17.90
2019-04-27T18:16:50.712Z,17.80
2019-04-27T18:19:40.263Z,17.90
2019-04-27T18:22:12.668Z,17.90
2019-04-27T18:24:55.681Z,17.80
2019-04-27T18:27:45.128Z,17.80
2019-04-27T18:30:24.072Z,17.80
2019-04-27T18:32:59.356Z,17.70
2019-04-27T18:35:29.656Z,17.60
2019-04-27T18:38:02.065Z,17.60
2019-04-27T18:40:34.325Z,17.30
2019-04-27T18:43:06.351Z,17.30
2019-04-27T18:45:44.719Z,17.30
2019-04-27T18:48:23.639Z,17.40
2019-04-27T18:51:01.841Z,17.30
2019-04-27T18:53:33.343Z,17.30
2019-04-27T18:56:05.528Z,17.40
2019-04-27T18:58:37.013Z,17.50
2019-04-27T19:01:08.671Z,17.40
2019-04-27T19:03:39.731Z,17.30
2019-04-27T19:06:22.308Z,17.20
2019-04-27T19:08:59.120Z,17.20
2019-04-27T19:11:31.145Z,17.30
2019-04-27T19:14:02.003Z,17.10
2019-04-27T19:16:34.597Z,16.90
2019-04-27T19:19:05.919Z,16.70
2019-04-27T19:21:39.110Z,16.60
2019-04-27T19:24:10.548Z,16.60
2019-04-27T19:26:51.920Z,16.60
2019-04-27T19:29:29.107Z,16.60
2019-04-27T19:32:01.688Z,16.60
2019-04-27T19:34:33.369Z,16.50
2019-04-27T19:37:04.675Z,16.50
2019-04-27T19:39:36.041Z,16.50
2019-04-27T19:42:07.208Z,16.50
2019-04-27T19:44:39.012Z,16.50
2019-04-27T19:47:10.600Z,16.50
2019-04-27T19:49:42.057Z,16.50
2019-04-27T19:52:13.590Z,16.50
2019-04-27T19:54:45.222Z,16.60
2019-04-27T19:57:29.341Z,16.50
2019-04-27T19:59:53.728Z,16.50
2019-04-27T20:02:25.134Z,16.50
2019-04-27T20:05:03.958Z,16.60
2019-04-27T20:07:37.825Z,16.50
2019-04-27T20:10:09.753Z,16.40
2019-04-27T20:12:42.070Z,16.40
2019-04-27T20:15:14.075Z,16.40
2019-04-27T20:17:45.014Z,16.20
2019-04-27T20:20:16.462Z,16.10
2019-04-27T20:22:47.782Z,16.00
2019-04-27T20:25:18.857Z,16.10
2019-04-27T20:27:51.950Z,16.20
2019-04-27T20:30:22.757Z,16.30
2019-04-27T20:32:56.035Z,16.20
2019-04-27T20:35:27.648Z,16.10
2019-04-27T20:37:58.912Z,16.20
2019-04-27T20:40:31.593Z,16.10
2019-04-27T20:43:03.213Z,16.10
2019-04-27T20:45:35.352Z,16.20
2019-04-27T20:48:06.794Z,16.10
2019-04-27T20:50:38.115Z,15.90
2019-04-27T20:53:12.987Z,15.90
2019-04-27T20:55:44.443Z,15.80
2019-04-27T20:58:15.709Z,15.90
2019-04-27T21:00:46.944Z,15.90
2019-04-27T21:03:27.647Z,15.80
2019-04-27T21:06:16.817Z,15.80
2019-04-27T21:08:48.244Z,15.70
2019-04-27T21:11:20.936Z,15.80
2019-04-27T21:13:57.015Z,15.80
2019-04-27T21:16:30.911Z,15.90
2019-04-27T21:19:04.914Z,15.90
2019-04-27T21:21:34.803Z,15.80
2019-04-27T21:24:07.165Z,15.70
2019-04-27T21:26:38.479Z,15.80
2019-04-27T21:29:11.573Z,15.70
2019-04-27T21:31:42.903Z,15.80
2019-04-27T21:34:14.429Z,15.80
2019-04-27T21:36:45.682Z,15.60
2019-04-27T21:39:17.194Z,15.70
2019-04-27T21:41:48.329Z,15.80
2019-04-27T21:44:21.587Z,15.70
2019-04-27T21:46:53.513Z,15.70
2019-04-27T21:49:24.739Z,15.70
2019-04-27T21:52:04.423Z,15.80
2019-04-27T21:54:36.336Z,15.80
2019-04-27T21:57:11.163Z,15.80
2019-04-27T21:59:42.099Z,15.80
2019-04-27T22:02:13.742Z,15.80
2019-04-27T22:04:45.136Z,15.60
2019-04-27T22:07:16.667Z,15.50
2019-04-27T22:09:48.002Z,15.50
2019-04-27T22:12:21.247Z,15.50
2019-04-27T22:14:53.091Z,15.70
2019-04-27T22:17:24.448Z,15.60
2019-04-27T22:19:57.790Z,15.60
2019-04-27T22:22:36.361Z,15.60
2019-04-27T22:25:11.634Z,15.40
2019-04-27T22:27:43.096Z,15.20
2019-04-27T22:30:14.253Z,15.20
2019-04-27T22:32:45.441Z,15.30
2019-04-27T22:35:16.961Z,15.30
2019-04-27T22:37:48.700Z,15.40
2019-04-27T22:40:47.981Z,15.30
2019-04-27T22:43:38.139Z,15.20
2019-04-27T22:46:11.437Z,15.30
2019-04-27T22:48:43.020Z,15.40
2019-04-27T22:51:14.221Z,15.40
2019-04-27T22:53:45.433Z,15.40
2019-04-27T22:56:19.264Z,15.30
2019-04-27T22:59:00.629Z,15.40
2019-04-27T23:01:48.120Z,15.40
2019-04-27T23:04:23.426Z,15.40
2019-04-27T23:06:54.778Z,15.40
2019-04-27T23:09:26.492Z,15.30
2019-04-27T23:11:58.058Z,15.40
2019-04-27T23:14:31.324Z,15.50
2019-04-27T23:17:20.068Z,15.40
2019-04-27T23:19:51.380Z,15.20
2019-04-27T23:22:24.140Z,15.30
2019-04-27T23:24:55.316Z,15.10
2019-04-27T23:27:26.740Z,15.30
2019-04-27T23:29:57.760Z,15.30
2019-04-27T23:32:35.266Z,15.40
2019-04-27T23:35:06.507Z,15.40
2019-04-27T23:37:37.778Z,15.40
2019-04-27T23:40:11.140Z,15.50
2019-04-27T23:42:42.721Z,15.50
2019-04-27T23:45:14.131Z,15.50
2019-04-27T23:47:45.816Z,15.60
2019-04-27T23:50:17.299Z,15.50
2019-04-27T23:53:21.715Z,15.30
2019-04-27T23:55:52.624Z,15.40
2019-04-27T23:58:24.257Z,15.40
